Weather History for Fremont, MI

Change the Weather History Date:

Wednesday, January 9, 2013

  Actual Average (KMKG) Record (KMKG)
Temperature  
Mean Temperature 36 °F 26 °F  
Max Temperature 43 °F 31 °F 48 °F (1928)
Min Temperature 30 °F 20 °F -8 °F (1977)
Degree Days  
Heating Degree Days 28 39  
Month to date heating degree days 349  
Since 1 July heating degree days 2795  
Cooling Degree Days 0 0  
Month to date cooling degree days 0  
Year to date cooling degree days 0  
Moisture  
Dew Point 28 °F    
Average Humidity 69    
Maximum Humidity 86    
Minimum Humidity 50    
Precipitation  
Precipitation 0.00 in 0.07 in 0.85 in (1946)
Month to date precipitation 0.65  
Year to date precipitation 0.65  
Snow  
Snow 0.00 in 0.90 in 11.40 in (1982)
Month to date snowfall 8.1  
Since 1 July snowfall 43.2  
Snow Depth -    
Sea Level Pressure  
Sea Level Pressure 30.12 in    
Wind  
Wind Speed 11 mph (SW)    
Max Wind Speed 23 mph    
Max Gust Speed 33 mph    
Visibility 10 miles    
Events Rain    
T = Trace of Precipitation, MM = Missing Value Source: NWS Daily Summary

Daily Weather History Graph

Daily Weather History Graph

Search for Another Location

Airport:

Trip Planner

Search our weather history database for the weather conditions in past years. The results will help you decide how hot, cold, wet, or windy it might be!

Date:

Astronomy

Jan. 09, 2013 Rise Set
Actual Time 8:15 AM EST 5:26 PM EST
Civil Twilight 7:43 AM EST 5:58 PM EST
Nautical Twilight 7:08 AM EST 6:34 PM EST
Astronomical Twilight 6:33 AM EST 7:09 PM EST
Moon 5:54 AM EST (1/9) 3:27 PM EST (1/9)
Length of Visible Light 10h 15m
Length of Day
9h 10m
Waning Crescent, 6% of the Moon is Illuminated
Jan 9
Waning Crescent
Jan 11
New
Jan 18
First Quarter
Jan 26
Full
Feb 3
Last Quarter

Hourly Weather History & Observations

Time (EST) Temp. Windchill Dew Point Humidity Pressure Visibility Wind Dir Wind Speed Gust Speed Precip Events Conditions
12:15 AM 32.9 °F 26.7 °F 25.5 °F 74% 30.02 in 10.0 mi SSE 6.9 mph - N/A   Scattered Clouds
12:55 AM 32.5 °F 26.2 °F 25.5 °F 75% 30.00 in 10.0 mi SSE 6.9 mph - N/A   Clear
1:15 AM 32.4 °F 26.9 °F 25.7 °F 76% 29.98 in 10.0 mi SSE 5.8 mph - N/A   Clear
1:35 AM 32.9 °F 27.5 °F 26.2 °F 76% 29.97 in 10.0 mi SSE 5.8 mph - N/A   Clear
1:54 AM 33.3 °F 26.4 °F 27.0 °F 78% 29.95 in 10.0 mi SSE 8.1 mph - N/A   Clear
2:15 AM 33.3 °F 27.9 °F 27.3 °F 79% 29.95 in 10.0 mi SSE 5.8 mph - N/A   Scattered Clouds
2:35 AM 33.8 °F 28.6 °F 28.0 °F 79% 29.95 in 10.0 mi SSE 5.8 mph - N/A   Mostly Cloudy
2:55 AM 34.7 °F 28.8 °F 29.7 °F 82% 29.95 in 10.0 mi South 6.9 mph - N/A   Overcast
3:15 AM 35.8 °F 29.4 °F 31.1 °F 83% 29.95 in 10.0 mi South 8.1 mph 18.4 mph N/A   Overcast
3:35 AM 39.2 °F 31.6 °F 32.4 °F 76% 29.94 in 10.0 mi South 12.7 mph 17.3 mph N/A   Overcast
3:55 AM 38.7 °F 30.5 °F 33.8 °F 83% 29.93 in 10.0 mi South 13.8 mph 23.0 mph N/A Rain Light Rain
4:14 AM 37.9 °F 30.0 °F 33.8 °F 85% 29.93 in 10.0 mi South 12.7 mph - N/A   Scattered Clouds
4:35 AM 37.8 °F 29.8 °F 34.0 °F 86% 29.92 in 10.0 mi South 12.7 mph 19.6 mph N/A   Clear
4:54 AM 38.3 °F 30.5 °F 34.2 °F 85% 29.92 in 10.0 mi SSW 12.7 mph 20.7 mph N/A   Scattered Clouds
5:15 AM 38.7 °F 29.8 °F 33.8 °F 83% 29.91 in 10.0 mi SSW 16.1 mph - N/A   Mostly Cloudy
5:35 AM 39.6 °F 30.3 °F 33.1 °F 78% 29.91 in 10.0 mi SSW 18.4 mph 27.6 mph N/A   Mostly Cloudy
5:55 AM 39.2 °F 30.2 °F 33.1 °F 79% 29.92 in 10.0 mi SSW 17.3 mph 23.0 mph N/A   Scattered Clouds
6:15 AM 38.8 °F 31.2 °F 33.1 °F 80% 29.92 in 10.0 mi SSW 12.7 mph - N/A   Clear
6:35 AM 38.7 °F 30.1 °F 32.4 °F 78% 29.92 in 10.0 mi SW 15.0 mph 19.6 mph N/A   Scattered Clouds
6:55 AM 39.2 °F 30.8 °F 32.2 °F 76% 29.94 in 10.0 mi SW 15.0 mph 24.2 mph N/A   Mostly Cloudy
7:15 AM 38.8 °F 31.6 °F 32.5 °F 78% 29.96 in 10.0 mi SW 11.5 mph 20.7 mph N/A   Overcast
7:32 AM 38.7 °F 29.1 °F 32.0 °F 77% 29.98 in 10.0 mi WSW 18.4 mph 24.2 mph N/A   Overcast
7:55 AM 37.8 °F 29.0 °F 31.5 °F 78% 29.99 in 10.0 mi WSW 15.0 mph 27.6 mph N/A   Overcast
8:15 AM 37.4 °F 28.2 °F 31.5 °F 79% 30.01 in 10.0 mi WSW 16.1 mph 20.7 mph N/A   Overcast
8:35 AM 36.5 °F 29.7 °F 31.1 °F 81% 30.02 in 10.0 mi SW 9.2 mph 19.6 mph N/A   Overcast
8:55 AM 36.0 °F 28.0 °F 30.9 °F 82% 30.03 in 10.0 mi WSW 11.5 mph - N/A   Scattered Clouds
9:15 AM 36.5 °F 29.7 °F 31.1 °F 81% 30.04 in 10.0 mi WSW 9.2 mph - N/A   Mostly Cloudy
9:35 AM 37.0 °F 29.3 °F 31.6 °F 81% 30.04 in 10.0 mi SW 11.5 mph 16.1 mph N/A   Scattered Clouds
9:55 AM 37.9 °F 30.0 °F 31.8 °F 79% 30.04 in 10.0 mi SW 12.7 mph 18.4 mph N/A   Scattered Clouds
10:15 AM 39.2 °F 32.0 °F 31.5 °F 74% 30.05 in 10.0 mi SW 11.5 mph 16.1 mph N/A   Clear
10:35 AM 40.1 °F 32.4 °F 30.9 °F 70% 30.05 in 10.0 mi WSW 13.8 mph 21.9 mph N/A   Clear
10:54 AM 41.4 °F 34.3 °F 30.9 °F 66% 30.05 in 10.0 mi WSW 12.7 mph 19.6 mph N/A   Clear
11:15 AM 41.9 °F 35.9 °F 30.0 °F 63% 30.05 in 10.0 mi SW 10.4 mph 24.2 mph N/A   Clear
11:35 AM 42.6 °F 34.3 °F 29.1 °F 59% 30.05 in 10.0 mi SW 18.4 mph 25.3 mph N/A   Clear
11:55 AM 42.8 °F 34.5 °F 28.2 °F 56% 30.06 in 10.0 mi WSW 18.4 mph 28.8 mph N/A   Clear
12:15 PM 43.0 °F 34.5 °F 27.7 °F 55% 30.06 in 10.0 mi SW 19.6 mph 27.6 mph N/A   Clear
12:35 PM 42.8 °F 34.5 °F 25.9 °F 51% 30.07 in 10.0 mi WSW 18.4 mph 32.2 mph N/A   Clear
12:55 PM 42.4 °F 33.1 °F 25.5 °F 51% 30.07 in 10.0 mi WSW 23.0 mph 32.2 mph N/A   Clear
1:15 PM 42.1 °F 32.8 °F 25.5 °F 52% 30.07 in 10.0 mi WSW 21.9 mph 32.2 mph N/A   Clear
1:34 PM 42.3 °F 34.1 °F 25.3 °F 51% 30.08 in 10.0 mi WSW 17.3 mph 27.6 mph N/A   Clear
1:55 PM 42.1 °F 34.2 °F 24.6 °F 50% 30.09 in 10.0 mi WSW 16.1 mph 29.9 mph N/A   Clear
2:15 PM 42.1 °F 33.6 °F 25.0 °F 51% 30.11 in 10.0 mi SW 18.4 mph 27.6 mph N/A   Clear
2:35 PM 41.5 °F 33.2 °F 25.0 °F 52% 30.14 in 10.0 mi SW 17.3 mph 29.9 mph N/A   Scattered Clouds
2:55 PM 41.9 °F 35.0 °F 25.3 °F 52% 30.15 in 10.0 mi WSW 12.7 mph 25.3 mph N/A   Scattered Clouds
3:15 PM 41.9 °F 32.3 °F 25.2 °F 52% 30.16 in 10.0 mi WSW 23.0 mph 29.9 mph N/A   Scattered Clouds
3:35 PM 41.9 °F 33.1 °F 24.4 °F 50% 30.19 in 10.0 mi WSW 19.6 mph 29.9 mph N/A   Scattered Clouds
3:55 PM 41.2 °F 32.7 °F 24.6 °F 52% 30.21 in 10.0 mi WSW 17.3 mph 33.4 mph N/A   Scattered Clouds
4:15 PM 41.0 °F 31.4 °F 24.4 °F 52% 30.22 in 10.0 mi WSW 21.9 mph 32.2 mph N/A   Scattered Clouds
4:35 PM 40.3 °F 31.9 °F 23.9 °F 52% 30.24 in 10.0 mi WSW 16.1 mph 27.6 mph N/A   Clear
4:54 PM 39.4 °F 29.8 °F 23.4 °F 53% 30.24 in 10.0 mi West 19.6 mph 28.8 mph N/A   Clear
5:15 PM 38.7 °F 30.1 °F 24.3 °F 56% 30.27 in 10.0 mi WSW 15.0 mph 23.0 mph N/A   Clear
5:35 PM 38.3 °F 28.7 °F 25.2 °F 59% 30.28 in 10.0 mi WSW 18.4 mph 27.6 mph N/A   Clear
5:55 PM 37.4 °F 28.5 °F 25.5 °F 62% 30.28 in 10.0 mi WSW 15.0 mph 24.2 mph N/A   Clear
6:15 PM 37.4 °F 29.3 °F 25.3 °F 62% 30.30 in 10.0 mi WSW 12.7 mph 20.7 mph N/A   Clear
6:35 PM 36.9 °F 28.7 °F 25.2 °F 63% 30.32 in 10.0 mi WSW 12.7 mph - N/A   Clear
6:55 PM 37.2 °F 28.7 °F 25.2 °F 62% 30.32 in 10.0 mi West 13.8 mph 25.3 mph N/A   Clear
7:14 PM 36.5 °F 27.8 °F 25.3 °F 64% 30.33 in 10.0 mi West 13.8 mph 17.3 mph N/A   Clear
7:35 PM 36.1 °F 27.7 °F 25.2 °F 64% 30.34 in 10.0 mi West 12.7 mph 16.1 mph N/A   Clear
7:55 PM 36.0 °F 28.0 °F 24.6 °F 63% 30.35 in 10.0 mi West 11.5 mph - N/A   Clear
8:15 PM 35.2 °F 28.1 °F 24.4 °F 65% 30.35 in 10.0 mi West 9.2 mph - N/A   Clear
8:35 PM 34.9 °F 27.1 °F 24.3 °F 65% 30.36 in 10.0 mi West 10.4 mph - N/A   Clear
9:15 PM 34.2 °F 28.2 °F 24.1 °F 67% 30.38 in 10.0 mi West 6.9 mph - N/A   Clear
9:35 PM 33.3 °F 27.9 °F 23.9 °F 69% 30.39 in 10.0 mi West 5.8 mph - N/A   Clear
9:55 PM 32.4 °F 26.0 °F 24.3 °F 72% 30.39 in 10.0 mi West 6.9 mph - N/A   Clear
10:15 PM 32.4 °F 29.1 °F 23.9 °F 71% 30.40 in 10.0 mi WNW 3.5 mph - N/A   Clear
10:35 PM 31.8 °F 25.4 °F 23.5 °F 71% 30.40 in 10.0 mi West 6.9 mph - N/A   Clear
10:55 PM 30.0 °F 25.2 °F 24.1 °F 79% 30.39 in 10.0 mi NW 4.6 mph - N/A   Clear
11:15 PM 30.9 °F - 24.1 °F 76% 30.40 in 10.0 mi Calm Calm - N/A   Clear
11:35 PM 31.5 °F - 23.9 °F 74% 30.40 in 10.0 mi Calm Calm - N/A   Clear
11:55 PM 30.0 °F 25.2 °F 24.4 °F 80% 30.38 in 10.0 mi NW 4.6 mph - N/A   Clear